sensor_id;sensor_type;location;lat;lon;timestamp;P1;durP1;ratioP1;P2;durP2;ratioP2
55692;SDS011;41590;53.366;5.212;2023-01-24T00:00:25;9.75;;;6.18;;
55692;SDS011;41590;53.366;5.212;2023-01-24T00:05:21;10.38;;;6.63;;
55692;SDS011;41590;53.366;5.212;2023-01-24T00:07:53;7.20;;;6.32;;
55692;SDS011;41590;53.366;5.212;2023-01-24T00:10:19;7.72;;;6.93;;
55692;SDS011;41590;53.366;5.212;2023-01-24T00:12:53;6.82;;;6.13;;
55692;SDS011;41590;53.366;5.212;2023-01-24T00:15:21;7.43;;;6.13;;
55692;SDS011;41590;53.366;5.212;2023-01-24T00:17:52;10.73;;;6.70;;
55692;SDS011;41590;53.366;5.212;2023-01-24T00:20:36;8.30;;;7.32;;
55692;SDS011;41590;53.366;5.212;2023-01-24T00:23:02;8.35;;;7.07;;
55692;SDS011;41590;53.366;5.212;2023-01-24T00:25:33;7.60;;;6.82;;
55692;SDS011;41590;53.366;5.212;2023-01-24T00:28:10;8.02;;;7.22;;
55692;SDS011;41590;53.366;5.212;2023-01-24T00:30:46;8.75;;;7.20;;
55692;SDS011;41590;53.366;5.212;2023-01-24T00:33:19;9.43;;;7.25;;
55692;SDS011;41590;53.366;5.212;2023-01-24T00:40:46;9.55;;;7.90;;
55692;SDS011;41590;53.366;5.212;2023-01-24T00:43:17;9.93;;;8.18;;
55692;SDS011;41590;53.366;5.212;2023-01-24T00:48:12;10.15;;;7.80;;
55692;SDS011;41590;53.366;5.212;2023-01-24T00:50:38;11.18;;;7.85;;
55692;SDS011;41590;53.366;5.212;2023-01-24T00:53:04;8.90;;;8.00;;
55692;SDS011;41590;53.366;5.212;2023-01-24T00:55:50;9.90;;;8.32;;
55692;SDS011;41590;53.366;5.212;2023-01-24T00:58:21;10.98;;;8.70;;
55692;SDS011;41590;53.366;5.212;2023-01-24T01:01:02;10.75;;;8.43;;
55692;SDS011;41590;53.366;5.212;2023-01-24T01:03:34;11.45;;;9.38;;
55692;SDS011;41590;53.366;5.212;2023-01-24T01:06:01;11.05;;;8.45;;
55692;SDS011;41590;53.366;5.212;2023-01-24T01:08:31;11.57;;;10.02;;
55692;SDS011;41590;53.366;5.212;2023-01-24T01:10:57;11.73;;;10.05;;
55692;SDS011;41590;53.366;5.212;2023-01-24T01:13:23;13.60;;;10.18;;
55692;SDS011;41590;53.366;5.212;2023-01-24T01:16:00;13.63;;;10.93;;
55692;SDS011;41590;53.366;5.212;2023-01-24T01:18:29;11.50;;;9.57;;
55692;SDS011;41590;53.366;5.212;2023-01-24T01:20:56;13.40;;;10.63;;
55692;SDS011;41590;53.366;5.212;2023-01-24T01:23:25;14.15;;;11.10;;
55692;SDS011;41590;53.366;5.212;2023-01-24T01:26:01;13.52;;;10.20;;
55692;SDS011;41590;53.366;5.212;2023-01-24T01:28:30;12.50;;;10.38;;
55692;SDS011;41590;53.366;5.212;2023-01-24T01:30:56;12.82;;;10.27;;
55692;SDS011;41590;53.366;5.212;2023-01-24T01:33:24;14.98;;;10.60;;
55692;SDS011;41590;53.366;5.212;2023-01-24T01:35:52;14.00;;;11.55;;
55692;SDS011;41590;53.366;5.212;2023-01-24T01:40:50;13.63;;;11.38;;
55692;SDS011;41590;53.366;5.212;2023-01-24T01:43:23;15.93;;;11.82;;
55692;SDS011;41590;53.366;5.212;2023-01-24T01:45:58;13.75;;;11.32;;
55692;SDS011;41590;53.366;5.212;2023-01-24T01:49:00;14.60;;;12.02;;
55692;SDS011;41590;53.366;5.212;2023-01-24T01:58:44;14.00;;;11.32;;
55692;SDS011;41590;53.366;5.212;2023-01-24T02:01:09;16.05;;;12.07;;
55692;SDS011;41590;53.366;5.212;2023-01-24T02:03:48;13.63;;;11.43;;
55692;SDS011;41590;53.366;5.212;2023-01-24T02:09:32;14.48;;;12.00;;
55692;SDS011;41590;53.366;5.212;2023-01-24T02:12:04;14.35;;;10.90;;
55692;SDS011;41590;53.366;5.212;2023-01-24T02:14:35;12.00;;;10.80;;
55692;SDS011;41590;53.366;5.212;2023-01-24T02:17:20;13.27;;;11.05;;
55692;SDS011;41590;53.366;5.212;2023-01-24T02:29:00;13.10;;;11.63;;
55692;SDS011;41590;53.366;5.212;2023-01-24T02:34:35;15.40;;;12.02;;
55692;SDS011;41590;53.366;5.212;2023-01-24T02:37:10;15.85;;;12.60;;
55692;SDS011;41590;53.366;5.212;2023-01-24T02:45:34;14.43;;;12.05;;
55692;SDS011;41590;53.366;5.212;2023-01-24T02:48:00;16.42;;;13.18;;
55692;SDS011;41590;53.366;5.212;2023-01-24T02:50:27;14.90;;;12.23;;
55692;SDS011;41590;53.366;5.212;2023-01-24T02:53:14;17.92;;;13.15;;
55692;SDS011;41590;53.366;5.212;2023-01-24T02:55:56;17.40;;;13.82;;
55692;SDS011;41590;53.366;5.212;2023-01-24T02:58:49;16.55;;;13.55;;
55692;SDS011;41590;53.366;5.212;2023-01-24T03:01:17;17.35;;;13.65;;
55692;SDS011;41590;53.366;5.212;2023-01-24T03:03:55;17.52;;;14.20;;
55692;SDS011;41590;53.366;5.212;2023-01-24T03:06:27;15.95;;;13.32;;
55692;SDS011;41590;53.366;5.212;2023-01-24T03:11:27;15.50;;;12.75;;
55692;SDS011;41590;53.366;5.212;2023-01-24T03:14:00;15.93;;;12.93;;
55692;SDS011;41590;53.366;5.212;2023-01-24T03:16:44;16.25;;;12.18;;
55692;SDS011;41590;53.366;5.212;2023-01-24T03:19:33;16.20;;;13.10;;
55692;SDS011;41590;53.366;5.212;2023-01-24T03:22:20;19.33;;;14.38;;
55692;SDS011;41590;53.366;5.212;2023-01-24T03:28:02;22.30;;;15.38;;
55692;SDS011;41590;53.366;5.212;2023-01-24T03:30:56;19.80;;;15.40;;
55692;SDS011;41590;53.366;5.212;2023-01-24T03:36:44;21.08;;;15.57;;
55692;SDS011;41590;53.366;5.212;2023-01-24T03:39:12;20.65;;;15.55;;
55692;SDS011;41590;53.366;5.212;2023-01-24T03:41:59;20.58;;;15.95;;
55692;SDS011;41590;53.366;5.212;2023-01-24T03:44:32;21.98;;;15.30;;
55692;SDS011;41590;53.366;5.212;2023-01-24T03:49:28;23.27;;;17.23;;
55692;SDS011;41590;53.366;5.212;2023-01-24T03:52:13;23.85;;;15.23;;
55692;SDS011;41590;53.366;5.212;2023-01-24T03:57:37;23.90;;;18.25;;
55692;SDS011;41590;53.366;5.212;2023-01-24T04:02:48;24.13;;;17.33;;
55692;SDS011;41590;53.366;5.212;2023-01-24T04:05:23;22.92;;;16.45;;
55692;SDS011;41590;53.366;5.212;2023-01-24T04:07:52;20.63;;;16.52;;
55692;SDS011;41590;53.366;5.212;2023-01-24T04:10:20;21.33;;;16.45;;
55692;SDS011;41590;53.366;5.212;2023-01-24T04:15:19;22.63;;;17.42;;
55692;SDS011;41590;53.366;5.212;2023-01-24T04:17:53;21.70;;;16.70;;
55692;SDS011;41590;53.366;5.212;2023-01-24T04:20:34;22.90;;;17.10;;
55692;SDS011;41590;53.366;5.212;2023-01-24T04:23:05;22.15;;;16.55;;
55692;SDS011;41590;53.366;5.212;2023-01-24T04:25:32;20.83;;;16.58;;
55692;SDS011;41590;53.366;5.212;2023-01-24T04:27:58;23.38;;;16.90;;
55692;SDS011;41590;53.366;5.212;2023-01-24T04:30:26;22.35;;;16.35;;
55692;SDS011;41590;53.366;5.212;2023-01-24T04:32:51;23.80;;;16.85;;
55692;SDS011;41590;53.366;5.212;2023-01-24T04:35:21;20.90;;;15.43;;
55692;SDS011;41590;53.366;5.212;2023-01-24T04:37:49;20.77;;;16.90;;
55692;SDS011;41590;53.366;5.212;2023-01-24T04:42:46;21.10;;;16.45;;
55692;SDS011;41590;53.366;5.212;2023-01-24T04:48:14;23.73;;;17.45;;
55692;SDS011;41590;53.366;5.212;2023-01-24T04:50:40;24.45;;;16.02;;
55692;SDS011;41590;53.366;5.212;2023-01-24T05:00:04;19.63;;;15.15;;
55692;SDS011;41590;53.366;5.212;2023-01-24T05:02:42;22.38;;;15.45;;
55692;SDS011;41590;53.366;5.212;2023-01-24T05:07:40;21.60;;;15.85;;
55692;SDS011;41590;53.366;5.212;2023-01-24T05:10:06;21.00;;;15.68;;
55692;SDS011;41590;53.366;5.212;2023-01-24T05:12:33;20.17;;;15.57;;
55692;SDS011;41590;53.366;5.212;2023-01-24T05:14:59;20.15;;;14.35;;
55692;SDS011;41590;53.366;5.212;2023-01-24T05:17:26;20.65;;;15.43;;
55692;SDS011;41590;53.366;5.212;2023-01-24T05:22:27;22.23;;;16.45;;
55692;SDS011;41590;53.366;5.212;2023-01-24T05:24:54;21.33;;;16.45;;
55692;SDS011;41590;53.366;5.212;2023-01-24T05:27:20;23.23;;;16.83;;
55692;SDS011;41590;53.366;5.212;2023-01-24T05:29:48;20.25;;;16.00;;
55692;SDS011;41590;53.366;5.212;2023-01-24T05:32:13;21.50;;;16.60;;
55692;SDS011;41590;53.366;5.212;2023-01-24T05:34:43;23.10;;;17.73;;
55692;SDS011;41590;53.366;5.212;2023-01-24T05:37:10;25.35;;;17.52;;
55692;SDS011;41590;53.366;5.212;2023-01-24T05:39:41;20.75;;;16.15;;
55692;SDS011;41590;53.366;5.212;2023-01-24T05:42:06;24.02;;;16.50;;
55692;SDS011;41590;53.366;5.212;2023-01-24T05:44:35;21.20;;;15.43;;
55692;SDS011;41590;53.366;5.212;2023-01-24T05:47:03;23.23;;;17.42;;
55692;SDS011;41590;53.366;5.212;2023-01-24T05:49:33;21.10;;;15.82;;
55692;SDS011;41590;53.366;5.212;2023-01-24T05:52:12;20.25;;;15.60;;
55692;SDS011;41590;53.366;5.212;2023-01-24T05:54:56;22.67;;;16.20;;
55692;SDS011;41590;53.366;5.212;2023-01-24T05:57:23;20.50;;;12.90;;
55692;SDS011;41590;53.366;5.212;2023-01-24T05:59:51;20.70;;;15.73;;
55692;SDS011;41590;53.366;5.212;2023-01-24T06:02:26;20.48;;;15.05;;
55692;SDS011;41590;53.366;5.212;2023-01-24T06:04:53;20.83;;;15.50;;
55692;SDS011;41590;53.366;5.212;2023-01-24T06:13:28;20.27;;;15.95;;
55692;SDS011;41590;53.366;5.212;2023-01-24T06:16:03;21.73;;;15.63;;
55692;SDS011;41590;53.366;5.212;2023-01-24T06:21:22;20.73;;;15.88;;
55692;SDS011;41590;53.366;5.212;2023-01-24T06:24:25;23.88;;;16.20;;
55692;SDS011;41590;53.366;5.212;2023-01-24T06:26:52;21.27;;;15.27;;
55692;SDS011;41590;53.366;5.212;2023-01-24T06:29:19;20.90;;;15.55;;
55692;SDS011;41590;53.366;5.212;2023-01-24T06:40:52;20.23;;;14.35;;
55692;SDS011;41590;53.366;5.212;2023-01-24T06:43:27;20.42;;;14.70;;
55692;SDS011;41590;53.366;5.212;2023-01-24T06:48:43;19.65;;;14.70;;
55692;SDS011;41590;53.366;5.212;2023-01-24T06:51:13;20.25;;;14.88;;
55692;SDS011;41590;53.366;5.212;2023-01-24T06:58:45;22.15;;;15.23;;
55692;SDS011;41590;53.366;5.212;2023-01-24T07:06:32;21.30;;;14.30;;
55692;SDS011;41590;53.366;5.212;2023-01-24T07:11:43;22.52;;;14.82;;
55692;SDS011;41590;53.366;5.212;2023-01-24T07:14:09;22.30;;;15.00;;
55692;SDS011;41590;53.366;5.212;2023-01-24T07:16:37;19.38;;;14.55;;
55692;SDS011;41590;53.366;5.212;2023-01-24T07:21:43;20.17;;;15.02;;
55692;SDS011;41590;53.366;5.212;2023-01-24T07:24:15;19.05;;;13.18;;
55692;SDS011;41590;53.366;5.212;2023-01-24T07:26:55;20.83;;;15.02;;
55692;SDS011;41590;53.366;5.212;2023-01-24T07:29:32;23.77;;;16.05;;
55692;SDS011;41590;53.366;5.212;2023-01-24T07:32:09;20.10;;;13.98;;
55692;SDS011;41590;53.366;5.212;2023-01-24T07:37:51;20.27;;;14.50;;
55692;SDS011;41590;53.366;5.212;2023-01-24T07:40:26;20.85;;;14.23;;
55692;SDS011;41590;53.366;5.212;2023-01-24T07:45:27;19.20;;;14.75;;
55692;SDS011;41590;53.366;5.212;2023-01-24T07:47:59;21.63;;;14.43;;
55692;SDS011;41590;53.366;5.212;2023-01-24T07:56:29;16.67;;;13.13;;
55692;SDS011;41590;53.366;5.212;2023-01-24T07:58:56;20.40;;;14.07;;
55692;SDS011;41590;53.366;5.212;2023-01-24T08:01:28;19.08;;;14.32;;
55692;SDS011;41590;53.366;5.212;2023-01-24T08:04:11;19.50;;;13.93;;
55692;SDS011;41590;53.366;5.212;2023-01-24T08:06:48;19.90;;;14.63;;
55692;SDS011;41590;53.366;5.212;2023-01-24T08:09:34;22.27;;;15.05;;
55692;SDS011;41590;53.366;5.212;2023-01-24T08:20:16;19.10;;;14.32;;
55692;SDS011;41590;53.366;5.212;2023-01-24T08:28:24;19.73;;;15.68;;
55692;SDS011;41590;53.366;5.212;2023-01-24T08:33:51;21.88;;;15.52;;
55692;SDS011;41590;53.366;5.212;2023-01-24T08:39:05;17.88;;;13.40;;
55692;SDS011;41590;53.366;5.212;2023-01-24T08:44:25;17.75;;;13.82;;
55692;SDS011;41590;53.366;5.212;2023-01-24T08:49:30;19.75;;;15.30;;
55692;SDS011;41590;53.366;5.212;2023-01-24T08:51:56;17.83;;;13.60;;
55692;SDS011;41590;53.366;5.212;2023-01-24T08:57:19;18.75;;;13.45;;
55692;SDS011;41590;53.366;5.212;2023-01-24T09:02:30;17.55;;;13.63;;
55692;SDS011;41590;53.366;5.212;2023-01-24T09:11:11;18.45;;;13.77;;
55692;SDS011;41590;53.366;5.212;2023-01-24T09:13:39;17.80;;;13.80;;
55692;SDS011;41590;53.366;5.212;2023-01-24T09:16:05;17.38;;;13.45;;
55692;SDS011;41590;53.366;5.212;2023-01-24T09:18:49;20.55;;;14.20;;
55692;SDS011;41590;53.366;5.212;2023-01-24T09:21:25;19.05;;;13.70;;
55692;SDS011;41590;53.366;5.212;2023-01-24T09:23:55;17.70;;;12.60;;
55692;SDS011;41590;53.366;5.212;2023-01-24T09:26:32;17.10;;;13.13;;
55692;SDS011;41590;53.366;5.212;2023-01-24T09:35:36;20.00;;;14.18;;
55692;SDS011;41590;53.366;5.212;2023-01-24T09:51:21;21.13;;;16.35;;
55692;SDS011;41590;53.366;5.212;2023-01-24T09:54:09;21.85;;;16.67;;
55692;SDS011;41590;53.366;5.212;2023-01-24T10:03:28;24.10;;;17.95;;
55692;SDS011;41590;53.366;5.212;2023-01-24T10:24:30;22.73;;;18.30;;
55692;SDS011;41590;53.366;5.212;2023-01-24T10:27:21;20.98;;;15.55;;
55692;SDS011;41590;53.366;5.212;2023-01-24T10:32:59;24.50;;;18.20;;
55692;SDS011;41590;53.366;5.212;2023-01-24T10:41:35;25.85;;;18.75;;
55692;SDS011;41590;53.366;5.212;2023-01-24T11:08:35;28.52;;;19.35;;
55692;SDS011;41590;53.366;5.212;2023-01-24T11:17:27;26.80;;;19.73;;
55692;SDS011;41590;53.366;5.212;2023-01-24T11:23:08;33.22;;;22.33;;
55692;SDS011;41590;53.366;5.212;2023-01-24T11:57:00;34.35;;;23.42;;
55692;SDS011;41590;53.366;5.212;2023-01-24T12:17:47;31.95;;;22.70;;
55692;SDS011;41590;53.366;5.212;2023-01-24T12:35:39;37.92;;;25.23;;
55692;SDS011;41590;53.366;5.212;2023-01-24T13:52:50;38.85;;;25.65;;
55692;SDS011;41590;53.366;5.212;2023-01-24T13:58:37;33.58;;;24.13;;
55692;SDS011;41590;53.366;5.212;2023-01-24T14:04:17;38.92;;;25.90;;
55692;SDS011;41590;53.366;5.212;2023-01-24T14:06:56;33.67;;;23.80;;
55692;SDS011;41590;53.366;5.212;2023-01-24T14:09:35;36.90;;;24.75;;
55692;SDS011;41590;53.366;5.212;2023-01-24T14:12:15;39.85;;;26.20;;
55692;SDS011;41590;53.366;5.212;2023-01-24T14:27:16;34.92;;;22.40;;
55692;SDS011;41590;53.366;5.212;2023-01-24T14:29:45;34.05;;;23.08;;
55692;SDS011;41590;53.366;5.212;2023-01-24T14:38:47;35.17;;;23.40;;
55692;SDS011;41590;53.366;5.212;2023-01-24T14:41:21;35.08;;;23.95;;
55692;SDS011;41590;53.366;5.212;2023-01-24T14:43:51;34.00;;;23.98;;
55692;SDS011;41590;53.366;5.212;2023-01-24T14:46:22;30.15;;;21.02;;
55692;SDS011;41590;53.366;5.212;2023-01-24T14:49:11;27.95;;;19.13;;
55692;SDS011;41590;53.366;5.212;2023-01-24T14:54:28;34.22;;;22.17;;
55692;SDS011;41590;53.366;5.212;2023-01-24T14:56:55;30.73;;;21.52;;
55692;SDS011;41590;53.366;5.212;2023-01-24T14:59:32;28.48;;;21.98;;
55692;SDS011;41590;53.366;5.212;2023-01-24T15:02:14;25.08;;;18.83;;
55692;SDS011;41590;53.366;5.212;2023-01-24T15:15:55;26.17;;;18.15;;
55692;SDS011;41590;53.366;5.212;2023-01-24T15:18:39;27.75;;;19.85;;
55692;SDS011;41590;53.366;5.212;2023-01-24T15:33:45;23.67;;;17.48;;
55692;SDS011;41590;53.366;5.212;2023-01-24T15:36:36;24.52;;;17.55;;
55692;SDS011;41590;53.366;5.212;2023-01-24T15:42:18;27.00;;;17.98;;
55692;SDS011;41590;53.366;5.212;2023-01-24T15:45:04;28.45;;;19.95;;
55692;SDS011;41590;53.366;5.212;2023-01-24T15:47:33;25.65;;;18.55;;
55692;SDS011;41590;53.366;5.212;2023-01-24T15:53:27;25.35;;;17.77;;
55692;SDS011;41590;53.366;5.212;2023-01-24T15:56:26;25.27;;;18.00;;
55692;SDS011;41590;53.366;5.212;2023-01-24T16:02:01;33.47;;;24.65;;
55692;SDS011;41590;53.366;5.212;2023-01-24T16:04:28;32.92;;;22.33;;
55692;SDS011;41590;53.366;5.212;2023-01-24T16:10:12;26.70;;;18.38;;
55692;SDS011;41590;53.366;5.212;2023-01-24T16:15:43;28.80;;;19.27;;
55692;SDS011;41590;53.366;5.212;2023-01-24T16:18:11;26.67;;;19.88;;
55692;SDS011;41590;53.366;5.212;2023-01-24T16:20:46;27.27;;;19.58;;
55692;SDS011;41590;53.366;5.212;2023-01-24T16:23:26;27.88;;;18.55;;
55692;SDS011;41590;53.366;5.212;2023-01-24T16:32:21;26.63;;;17.35;;
55692;SDS011;41590;53.366;5.212;2023-01-24T16:50:11;30.42;;;19.15;;
55692;SDS011;41590;53.366;5.212;2023-01-24T16:59:08;32.20;;;20.67;;
55692;SDS011;41590;53.366;5.212;2023-01-24T17:08:22;38.50;;;26.98;;
55692;SDS011;41590;53.366;5.212;2023-01-24T17:13:57;72.55;;;42.95;;
55692;SDS011;41590;53.366;5.212;2023-01-24T17:16:25;40.33;;;23.70;;
55692;SDS011;41590;53.366;5.212;2023-01-24T17:18:53;31.15;;;20.92;;
55692;SDS011;41590;53.366;5.212;2023-01-24T17:21:27;29.83;;;19.50;;
55692;SDS011;41590;53.366;5.212;2023-01-24T17:26:43;33.33;;;20.70;;
55692;SDS011;41590;53.366;5.212;2023-01-24T17:29:11;29.08;;;20.77;;
55692;SDS011;41590;53.366;5.212;2023-01-24T17:34:26;29.17;;;19.98;;
55692;SDS011;41590;53.366;5.212;2023-01-24T17:37:09;30.08;;;20.25;;
55692;SDS011;41590;53.366;5.212;2023-01-24T17:39:45;34.03;;;18.58;;
55692;SDS011;41590;53.366;5.212;2023-01-24T17:42:24;27.90;;;18.77;;
55692;SDS011;41590;53.366;5.212;2023-01-24T17:44:53;29.75;;;19.55;;
55692;SDS011;41590;53.366;5.212;2023-01-24T17:47:32;31.63;;;18.83;;
55692;SDS011;41590;53.366;5.212;2023-01-24T17:50:10;33.00;;;21.17;;
55692;SDS011;41590;53.366;5.212;2023-01-24T17:52:48;29.07;;;20.27;;
55692;SDS011;41590;53.366;5.212;2023-01-24T17:55:37;29.98;;;20.48;;
55692;SDS011;41590;53.366;5.212;2023-01-24T17:58:09;30.52;;;19.80;;
55692;SDS011;41590;53.366;5.212;2023-01-24T18:03:14;30.38;;;19.33;;
55692;SDS011;41590;53.366;5.212;2023-01-24T18:08:47;32.45;;;21.67;;
55692;SDS011;41590;53.366;5.212;2023-01-24T18:11:16;51.35;;;35.30;;
55692;SDS011;41590;53.366;5.212;2023-01-24T18:17:25;43.05;;;29.35;;
55692;SDS011;41590;53.366;5.212;2023-01-24T18:25:58;37.00;;;25.67;;
55692;SDS011;41590;53.366;5.212;2023-01-24T18:28:42;40.38;;;25.33;;
55692;SDS011;41590;53.366;5.212;2023-01-24T18:31:10;36.72;;;23.30;;
55692;SDS011;41590;53.366;5.212;2023-01-24T18:33:44;35.67;;;22.75;;
55692;SDS011;41590;53.366;5.212;2023-01-24T18:36:17;36.80;;;23.55;;
55692;SDS011;41590;53.366;5.212;2023-01-24T18:38:56;36.92;;;24.60;;
55692;SDS011;41590;53.366;5.212;2023-01-24T18:41:23;60.72;;;43.60;;
55692;SDS011;41590;53.366;5.212;2023-01-24T18:46:54;34.25;;;22.13;;
55692;SDS011;41590;53.366;5.212;2023-01-24T18:52:00;33.05;;;22.27;;
55692;SDS011;41590;53.366;5.212;2023-01-24T18:54:29;32.67;;;22.38;;
55692;SDS011;41590;53.366;5.212;2023-01-24T18:57:00;30.98;;;22.20;;
55692;SDS011;41590;53.366;5.212;2023-01-24T18:59:26;31.98;;;22.10;;
55692;SDS011;41590;53.366;5.212;2023-01-24T19:02:08;33.80;;;21.92;;
55692;SDS011;41590;53.366;5.212;2023-01-24T19:04:37;33.38;;;21.27;;
55692;SDS011;41590;53.366;5.212;2023-01-24T19:07:14;32.95;;;21.75;;
55692;SDS011;41590;53.366;5.212;2023-01-24T19:09:45;27.88;;;19.52;;
55692;SDS011;41590;53.366;5.212;2023-01-24T19:17:25;36.20;;;23.17;;
55692;SDS011;41590;53.366;5.212;2023-01-24T19:20:03;36.28;;;21.83;;
55692;SDS011;41590;53.366;5.212;2023-01-24T19:22:35;32.92;;;21.92;;
55692;SDS011;41590;53.366;5.212;2023-01-24T19:27:31;30.25;;;20.45;;
55692;SDS011;41590;53.366;5.212;2023-01-24T19:29:57;32.97;;;22.45;;
55692;SDS011;41590;53.366;5.212;2023-01-24T19:32:23;32.13;;;21.65;;
55692;SDS011;41590;53.366;5.212;2023-01-24T19:34:49;34.45;;;21.90;;
55692;SDS011;41590;53.366;5.212;2023-01-24T19:37:17;31.75;;;21.30;;
55692;SDS011;41590;53.366;5.212;2023-01-24T19:39:44;31.83;;;21.45;;
55692;SDS011;41590;53.366;5.212;2023-01-24T19:42:12;31.90;;;21.17;;
55692;SDS011;41590;53.366;5.212;2023-01-24T19:44:38;30.92;;;20.73;;
55692;SDS011;41590;53.366;5.212;2023-01-24T19:47:03;31.02;;;21.50;;
55692;SDS011;41590;53.366;5.212;2023-01-24T19:49:29;31.27;;;21.33;;
55692;SDS011;41590;53.366;5.212;2023-01-24T19:52:02;29.45;;;19.38;;
55692;SDS011;41590;53.366;5.212;2023-01-24T19:54:42;32.80;;;20.98;;
55692;SDS011;41590;53.366;5.212;2023-01-24T19:57:09;33.15;;;21.58;;
55692;SDS011;41590;53.366;5.212;2023-01-24T19:59:35;36.92;;;25.27;;
55692;SDS011;41590;53.366;5.212;2023-01-24T20:02:02;33.95;;;22.13;;
55692;SDS011;41590;53.366;5.212;2023-01-24T20:04:29;33.80;;;22.38;;
55692;SDS011;41590;53.366;5.212;2023-01-24T20:09:41;47.22;;;28.73;;
55692;SDS011;41590;53.366;5.212;2023-01-24T20:14:36;37.65;;;24.80;;
55692;SDS011;41590;53.366;5.212;2023-01-24T20:17:03;35.17;;;23.42;;
55692;SDS011;41590;53.366;5.212;2023-01-24T20:19:40;34.30;;;22.42;;
55692;SDS011;41590;53.366;5.212;2023-01-24T20:24:37;39.35;;;25.95;;
55692;SDS011;41590;53.366;5.212;2023-01-24T20:27:04;39.05;;;25.55;;
55692;SDS011;41590;53.366;5.212;2023-01-24T20:29:32;37.75;;;24.38;;
55692;SDS011;41590;53.366;5.212;2023-01-24T20:31:59;35.72;;;25.15;;
55692;SDS011;41590;53.366;5.212;2023-01-24T20:34:25;39.20;;;25.63;;
55692;SDS011;41590;53.366;5.212;2023-01-24T20:36:55;34.53;;;23.33;;
55692;SDS011;41590;53.366;5.212;2023-01-24T20:41:57;42.67;;;25.92;;
55692;SDS011;41590;53.366;5.212;2023-01-24T20:44:25;39.50;;;26.85;;
55692;SDS011;41590;53.366;5.212;2023-01-24T20:49:20;39.72;;;26.20;;
55692;SDS011;41590;53.366;5.212;2023-01-24T20:51:47;43.60;;;29.33;;
55692;SDS011;41590;53.366;5.212;2023-01-24T20:54:14;43.25;;;28.85;;
55692;SDS011;41590;53.366;5.212;2023-01-24T20:56:43;40.30;;;27.30;;
55692;SDS011;41590;53.366;5.212;2023-01-24T21:01:42;36.53;;;24.90;;
55692;SDS011;41590;53.366;5.212;2023-01-24T21:04:08;38.80;;;26.88;;
55692;SDS011;41590;53.366;5.212;2023-01-24T21:06:35;36.38;;;25.33;;
55692;SDS011;41590;53.366;5.212;2023-01-24T21:09:02;37.55;;;25.55;;
55692;SDS011;41590;53.366;5.212;2023-01-24T21:11:40;38.85;;;25.58;;
55692;SDS011;41590;53.366;5.212;2023-01-24T21:16:39;37.88;;;25.42;;
55692;SDS011;41590;53.366;5.212;2023-01-24T21:19:09;37.13;;;24.75;;
55692;SDS011;41590;53.366;5.212;2023-01-24T21:21:44;36.00;;;24.67;;
55692;SDS011;41590;53.366;5.212;2023-01-24T21:24:14;40.63;;;26.05;;
55692;SDS011;41590;53.366;5.212;2023-01-24T21:29:18;37.22;;;24.23;;
55692;SDS011;41590;53.366;5.212;2023-01-24T21:31:45;35.22;;;24.25;;
55692;SDS011;41590;53.366;5.212;2023-01-24T21:34:12;38.60;;;26.10;;
55692;SDS011;41590;53.366;5.212;2023-01-24T21:36:41;37.58;;;25.65;;
55692;SDS011;41590;53.366;5.212;2023-01-24T21:41:37;41.10;;;26.08;;
55692;SDS011;41590;53.366;5.212;2023-01-24T21:44:25;40.40;;;26.85;;
55692;SDS011;41590;53.366;5.212;2023-01-24T21:46:53;37.70;;;25.58;;
55692;SDS011;41590;53.366;5.212;2023-01-24T21:49:19;42.42;;;26.60;;
55692;SDS011;41590;53.366;5.212;2023-01-24T21:51:52;41.97;;;28.08;;
55692;SDS011;41590;53.366;5.212;2023-01-24T21:54:22;38.75;;;25.77;;
55692;SDS011;41590;53.366;5.212;2023-01-24T22:00:00;38.88;;;26.20;;
55692;SDS011;41590;53.366;5.212;2023-01-24T22:02:31;39.70;;;26.90;;
55692;SDS011;41590;53.366;5.212;2023-01-24T22:07:32;41.22;;;25.05;;
55692;SDS011;41590;53.366;5.212;2023-01-24T22:12:30;38.90;;;25.23;;
55692;SDS011;41590;53.366;5.212;2023-01-24T22:14:59;42.58;;;28.42;;
55692;SDS011;41590;53.366;5.212;2023-01-24T22:20:12;39.08;;;24.95;;
55692;SDS011;41590;53.366;5.212;2023-01-24T22:25:50;39.08;;;25.13;;
55692;SDS011;41590;53.366;5.212;2023-01-24T22:28:22;39.83;;;24.88;;
55692;SDS011;41590;53.366;5.212;2023-01-24T22:30:50;39.08;;;25.05;;
55692;SDS011;41590;53.366;5.212;2023-01-24T22:33:18;41.08;;;26.73;;
55692;SDS011;41590;53.366;5.212;2023-01-24T22:35:52;39.17;;;26.02;;
55692;SDS011;41590;53.366;5.212;2023-01-24T22:38:22;42.70;;;26.80;;
55692;SDS011;41590;53.366;5.212;2023-01-24T22:40:55;47.78;;;29.15;;
55692;SDS011;41590;53.366;5.212;2023-01-24T22:43:23;42.90;;;26.77;;
55692;SDS011;41590;53.366;5.212;2023-01-24T22:45:49;42.47;;;26.63;;
55692;SDS011;41590;53.366;5.212;2023-01-24T22:48:25;42.55;;;27.70;;
55692;SDS011;41590;53.366;5.212;2023-01-24T22:53:44;45.63;;;28.77;;
55692;SDS011;41590;53.366;5.212;2023-01-24T22:56:12;47.22;;;29.90;;
55692;SDS011;41590;53.366;5.212;2023-01-24T23:01:09;44.00;;;27.83;;
55692;SDS011;41590;53.366;5.212;2023-01-24T23:03:41;41.83;;;27.05;;
55692;SDS011;41590;53.366;5.212;2023-01-24T23:06:07;49.50;;;30.33;;
55692;SDS011;41590;53.366;5.212;2023-01-24T23:08:33;46.28;;;29.27;;
55692;SDS011;41590;53.366;5.212;2023-01-24T23:11:10;47.00;;;30.73;;
55692;SDS011;41590;53.366;5.212;2023-01-24T23:13:39;51.95;;;30.17;;
55692;SDS011;41590;53.366;5.212;2023-01-24T23:22:32;49.30;;;28.33;;
55692;SDS011;41590;53.366;5.212;2023-01-24T23:25:12;53.83;;;31.52;;
55692;SDS011;41590;53.366;5.212;2023-01-24T23:30:40;47.03;;;29.65;;
55692;SDS011;41590;53.366;5.212;2023-01-24T23:35:59;48.95;;;29.55;;
55692;SDS011;41590;53.366;5.212;2023-01-24T23:38:33;48.25;;;29.70;;
55692;SDS011;41590;53.366;5.212;2023-01-24T23:41:09;55.55;;;32.83;;
55692;SDS011;41590;53.366;5.212;2023-01-24T23:43:42;50.25;;;32.15;;
55692;SDS011;41590;53.366;5.212;2023-01-24T23:46:14;50.22;;;31.48;;
55692;SDS011;41590;53.366;5.212;2023-01-24T23:48:41;60.58;;;35.45;;
55692;SDS011;41590;53.366;5.212;2023-01-24T23:51:11;49.47;;;30.92;;
55692;SDS011;41590;53.366;5.212;2023-01-24T23:53:39;53.03;;;30.85;;
55692;SDS011;41590;53.366;5.212;2023-01-24T23:56:11;54.50;;;30.85;;
55692;SDS011;41590;53.366;5.212;2023-01-24T23:58:37;48.00;;;29.95;;
